Time;durP1;ratioP1;P1;durP2;ratioP2;P2;SDS_P1;SDS_P2;PMS_P1;PMS_P2;Temp;Humidity;BMP_temperature;BMP_pressure;BME280_temperature;BME280_humidity;BME280_pressure;Samples;Min_cycle;Max_cycle;Signal;HPM_P1;HPM_P2
2023/06/05 00:01:26;;;;;;;33.13;14.25;;;15.90;99.90;;;;;;5073776;28;20028;-64
2023/06/05 00:03:53;;;;;;;26.75;12.02;;;15.80;99.90;;;;;;5073901;28;20040;-64
2023/06/05 00:06:19;;;;;;;18.40;11.13;;;15.80;99.90;;;;;;5073999;28;20036;-64
2023/06/05 00:08:45;;;;;;;21.02;11.70;;;15.80;99.90;;;;;;5074080;28;20024;-64
2023/06/05 00:11:11;;;;;;;18.73;11.27;;;15.80;99.90;;;;;;5072737;28;20481;-64
2023/06/05 00:13:37;;;;;;;20.33;10.23;;;15.80;99.90;;;;;;5073827;28;20025;-64
2023/06/05 00:16:03;;;;;;;19.05;9.15;;;15.80;99.90;;;;;;5076749;28;20025;-64
2023/06/05 00:18:30;;;;;;;16.75;9.63;;;15.80;99.90;;;;;;5076340;28;20025;-64
2023/06/05 00:20:56;;;;;;;81.47;24.60;;;15.90;99.90;;;;;;5077616;28;20063;-65
2023/06/05 00:23:22;;;;;;;80.32;23.70;;;15.70;99.90;;;;;;5077568;28;20025;-64
2023/06/05 00:25:48;;;;;;;25.95;11.88;;;15.60;99.90;;;;;;5077431;28;20064;-64
2023/06/05 00:28:14;;;;;;;20.30;8.93;;;15.60;99.90;;;;;;5077465;28;20072;-65
2023/06/05 00:30:40;;;;;;;18.05;9.68;;;15.60;99.90;;;;;;5076103;28;20114;-64
2023/06/05 00:33:06;;;;;;;20.25;11.05;;;15.60;99.90;;;;;;5077407;28;20438;-64
2023/06/05 00:35:32;;;;;;;20.25;10.90;;;15.60;99.90;;;;;;5076110;28;20052;-65
2023/06/05 00:37:58;;;;;;;22.65;10.60;;;15.60;99.90;;;;;;5077308;28;20190;-65
2023/06/05 00:40:24;;;;;;;17.90;9.52;;;15.60;99.90;;;;;;5077233;28;20082;-65
2023/06/05 00:42:50;;;;;;;40.05;14.88;;;15.60;99.90;;;;;;5077217;28;20482;-64
2023/06/05 00:45:17;;;;;;;40.38;14.50;;;15.70;99.90;;;;;;5077185;28;20047;-64
2023/06/05 00:47:43;;;;;;;39.55;14.68;;;15.60;99.90;;;;;;5076964;28;20040;-64
2023/06/05 00:50:12;;;;;;;32.30;13.70;;;15.50;99.90;;;;;;5075633;28;20029;-64
2023/06/05 00:52:39;;;;;;;23.52;11.02;;;15.50;99.90;;;;;;5077116;28;20054;-64
2023/06/05 00:55:06;;;;;;;20.98;10.27;;;15.40;99.90;;;;;;5077063;28;20033;-64
2023/06/05 00:57:34;;;;;;;14.98;9.23;;;15.40;99.90;;;;;;5069602;28;20040;-65
2023/06/05 01:00:02;;;;;;;24.52;9.73;;;15.40;99.90;;;;;;5038792;28;20033;-64
2023/06/05 01:02:28;;;;;;;19.33;10.02;;;15.40;99.90;;;;;;5056500;28;20029;-65
2023/06/05 01:04:56;;;;;;;14.55;8.18;;;15.30;99.90;;;;;;5055488;28;20501;-65
2023/06/05 01:07:24;;;;;;;23.90;9.00;;;15.30;99.90;;;;;;5055449;28;20036;-65
2023/06/05 01:09:50;;;;;;;20.55;9.52;;;15.20;99.90;;;;;;5055228;28;20474;-65
2023/06/05 01:12:18;;;;;;;17.70;10.07;;;15.20;99.90;;;;;;5055264;28;20029;-65
2023/06/05 01:14:48;;;;;;;18.27;9.15;;;15.20;99.90;;;;;;5055483;28;20035;-65
2023/06/05 01:17:18;;;;;;;24.17;11.25;;;15.20;99.90;;;;;;5056475;28;20033;-64
2023/06/05 01:19:45;;;;;;;;;;;15.20;99.90;;;;;;5055665;28;20048;-64
2023/06/05 01:22:12;;;;;;;23.45;11.35;;;15.10;99.90;;;;;;5055182;28;19913;-65
2023/06/05 01:24:40;;;;;;;19.58;10.23;;;15.10;99.90;;;;;;5055116;28;20029;-65
2023/06/05 01:27:18;;;;;;;21.05;10.68;;;15.10;99.90;;;;;;5054006;28;20033;-65
2023/06/05 01:30:00;;;;;;;18.08;9.15;;;15.10;99.90;;;;;;5054953;28;20513;-65
2023/06/05 01:32:29;;;;;;;21.80;9.57;;;15.00;99.90;;;;;;5054949;28;20071;-65
2023/06/05 01:34:58;;;;;;;20.37;10.97;;;15.00;99.90;;;;;;5055028;28;20112;-65
2023/06/05 01:37:26;;;;;;;20.83;9.57;;;14.90;99.90;;;;;;5056060;28;20024;-65
2023/06/05 01:39:55;;;;;;;14.05;9.35;;;14.90;99.90;;;;;;5054912;28;20310;-65
2023/06/05 01:42:23;;;;;;;19.20;7.85;;;14.90;99.90;;;;;;5056180;28;20029;-65
2023/06/05 01:44:50;;;;;;;18.40;8.10;;;14.90;99.90;;;;;;5056005;28;20036;-64
2023/06/05 01:47:16;;;;;;;12.20;8.63;;;14.90;99.90;;;;;;5055951;28;20156;-64
2023/06/05 01:49:43;;;;;;;17.00;7.85;;;14.90;99.90;;;;;;5054574;28;20115;-65
2023/06/05 01:52:09;;;;;;;14.57;9.02;;;14.90;99.90;;;;;;5054451;28;20022;-65
2023/06/05 01:54:35;;;;;;;17.35;10.63;;;14.90;99.90;;;;;;5054524;28;20043;-65
2023/06/05 01:57:02;;;;;;;19.38;10.05;;;14.90;99.90;;;;;;5058544;28;20083;-65
2023/06/05 01:59:28;;;;;;;16.25;10.10;;;14.90;99.90;;;;;;5074337;28;20032;-65
2023/06/05 02:01:54;;;;;;;17.73;9.65;;;14.90;99.90;;;;;;5074403;28;20032;-64
2023/06/05 02:04:21;;;;;;;22.30;11.07;;;14.90;99.90;;;;;;5075746;28;20060;-65
2023/06/05 02:06:48;;;;;;;18.17;10.23;;;14.80;99.90;;;;;;5074498;28;20060;-65
2023/06/05 02:09:14;;;;;;;18.95;9.80;;;14.80;99.90;;;;;;5057389;28;20040;-65
2023/06/05 02:11:45;;;;;;;16.25;10.15;;;14.80;99.90;;;;;;5074182;28;20082;-65
2023/06/05 02:14:15;;;;;;;23.17;10.52;;;14.70;99.90;;;;;;5075422;28;20483;-65
2023/06/05 02:16:43;;;;;;;22.40;10.60;;;14.70;99.90;;;;;;5057496;28;20054;-65
2023/06/05 02:19:09;;;;;;;17.85;10.02;;;14.70;99.90;;;;;;5074047;28;20025;-65
2023/06/05 02:21:35;;;;;;;19.00;9.65;;;14.70;99.90;;;;;;5075362;28;20043;-65
2023/06/05 02:24:06;;;;;;;16.40;9.93;;;14.70;99.90;;;;;;5057396;28;20123;-65
2023/06/05 02:26:32;;;;;;;;;;;14.60;99.90;;;;;;5074595;28;20037;-65
2023/06/05 02:28:58;;;;;;;32.25;10.13;;;14.60;99.90;;;;;;5075114;28;20563;-65
2023/06/05 02:31:25;;;;;;;14.88;9.20;;;14.60;99.90;;;;;;5073921;28;20512;-65
2023/06/05 02:33:54;;;;;;;22.60;10.05;;;14.60;99.90;;;;;;5073863;28;20020;-65
2023/06/05 02:36:24;;;;;;;20.73;9.80;;;14.60;99.90;;;;;;5073781;28;20025;-65
2023/06/05 02:38:52;;;;;;;12.98;8.32;;;14.60;99.90;;;;;;5073690;28;20032;-65
2023/06/05 02:41:21;;;;;;;14.48;8.70;;;14.60;99.90;;;;;;5073662;28;20028;-65
2023/06/05 02:43:48;;;;;;;17.17;8.80;;;14.70;99.90;;;;;;5073584;28;20445;-65
2023/06/05 02:46:14;;;;;;;18.33;9.02;;;14.60;99.90;;;;;;5073521;28;20029;-65
2023/06/05 02:48:40;;;;;;;17.98;8.60;;;14.50;99.90;;;;;;5073458;28;20032;-65
2023/06/05 02:51:06;;;;;;;18.27;8.73;;;14.50;99.90;;;;;;5073400;28;20465;-65
2023/06/05 02:53:32;;;;;;;15.90;8.02;;;14.50;99.90;;;;;;5073764;28;20054;-65
2023/06/05 02:56:01;;;;;;;14.60;7.78;;;14.50;99.90;;;;;;5073282;28;20240;-65
2023/06/05 02:58:28;;;;;;;12.13;8.07;;;14.50;99.90;;;;;;5073514;28;20386;-65
2023/06/05 03:01:01;;;;;;;15.75;8.02;;;14.40;99.90;;;;;;5073297;28;20210;-65
2023/06/05 03:03:31;;;;;;;19.95;9.15;;;14.50;99.90;;;;;;5073268;28;20040;-65
2023/06/05 03:06:04;;;;;;;15.32;8.68;;;14.50;99.90;;;;;;5073282;28;20028;-65
2023/06/05 03:08:34;;;;;;;14.02;8.15;;;14.50;99.90;;;;;;5073592;28;20086;-65
2023/06/05 03:11:02;;;;;;;17.98;8.75;;;14.50;99.90;;;;;;5056572;28;20119;-65
2023/06/05 03:13:29;;;;;;;16.88;8.93;;;14.50;99.90;;;;;;5073020;28;20033;-65
2023/06/05 03:16:03;;;;;;;16.40;9.10;;;14.50;99.90;;;;;;5073366;28;20379;-65
2023/06/05 03:18:34;;;;;;;13.88;10.02;;;14.50;99.90;;;;;;5073128;28;20116;-65
2023/06/05 03:21:00;;;;;;;17.05;9.68;;;14.50;99.90;;;;;;5073263;28;20119;-65
2023/06/05 03:23:28;;;;;;;18.92;10.50;;;14.50;99.90;;;;;;5073195;28;20051;-65
2023/06/05 03:25:56;;;;;;;21.67;10.13;;;14.60;99.90;;;;;;5072857;28;20093;-65
2023/06/05 03:28:24;;;;;;;14.35;9.68;;;14.60;99.90;;;;;;5073222;28;20433;-65
2023/06/05 03:30:53;;;;;;;14.23;7.93;;;14.60;99.90;;;;;;5073078;28;20033;-65
2023/06/05 03:33:23;;;;;;;15.40;7.68;;;14.70;99.90;;;;;;5073136;28;20027;-65
2023/06/05 03:35:52;;;;;;;15.05;7.88;;;14.70;99.90;;;;;;5073096;28;20031;-65
2023/06/05 03:38:19;;;;;;;17.63;8.13;;;14.80;99.90;;;;;;5072771;28;20041;-65
2023/06/05 03:40:46;;;;;;;13.55;7.30;;;14.70;99.90;;;;;;5072991;28;20036;-65
2023/06/05 03:43:15;;;;;;;20.75;8.20;;;14.80;99.90;;;;;;5073017;28;20089;-65
2023/06/05 03:45:41;;;;;;;18.08;8.48;;;14.90;99.90;;;;;;5074243;28;20451;-64
2023/06/05 03:48:11;;;;;;;15.57;8.15;;;14.80;99.90;;;;;;5072763;28;20025;-65
2023/06/05 03:50:41;;;;;;;14.40;8.50;;;14.80;99.90;;;;;;5075207;28;20078;-65
2023/06/05 03:53:08;;;;;;;13.70;7.45;;;14.80;99.90;;;;;;5076855;28;20032;-65
2023/06/05 03:55:41;;;;;;;15.05;8.73;;;14.80;99.90;;;;;;5076757;28;20047;-64
2023/06/05 03:58:15;;;;;;;13.70;7.75;;;14.80;99.90;;;;;;5077897;28;20048;-65
2023/06/05 04:00:45;;;;;;;14.02;8.30;;;14.80;99.90;;;;;;5076755;28;20028;-65
2023/06/05 04:03:12;;;;;;;12.85;8.27;;;14.90;99.90;;;;;;5076564;28;20075;-64
2023/06/05 04:05:39;;;;;;;12.25;8.50;;;14.90;99.90;;;;;;5076809;28;20048;-65
2023/06/05 04:08:07;;;;;;;14.77;9.13;;;15.00;99.90;;;;;;5059609;28;20379;-65
2023/06/05 04:10:35;;;;;;;19.08;9.00;;;15.00;99.90;;;;;;5076005;28;20094;-65
2023/06/05 04:13:01;;;;;;;16.17;10.00;;;15.10;99.90;;;;;;5076694;28;20036;-65
2023/06/05 04:15:27;;;;;;;19.33;10.35;;;15.10;99.90;;;;;;5076310;28;20031;-65
2023/06/05 04:17:54;;;;;;;18.20;10.77;;;15.20;99.90;;;;;;5076398;28;20029;-64
2023/06/05 04:20:20;;;;;;;15.98;9.93;;;15.40;99.90;;;;;;5076285;28;20028;-65
2023/06/05 04:22:47;;;;;;;23.33;10.98;;;15.50;99.90;;;;;;5076225;28;20078;-65
2023/06/05 04:25:13;;;;;;;22.77;10.85;;;15.60;99.90;;;;;;5076173;28;20032;-65
2023/06/05 04:27:40;;;;;;;18.45;9.63;;;15.70;99.90;;;;;;5059609;28;20032;-64
2023/06/05 04:30:08;;;;;;;21.33;10.18;;;15.90;99.90;;;;;;5077462;28;20032;-64
2023/06/05 04:32:37;;;;;;;19.08;10.52;;;16.00;99.90;;;;;;5075956;28;20032;-65
2023/06/05 04:35:05;;;;;;;17.00;9.50;;;16.10;99.90;;;;;;5076091;28;20122;-64
2023/06/05 04:37:32;;;;;;;18.40;9.32;;;16.30;99.90;;;;;;5075864;28;20024;-64
2023/06/05 04:40:05;;;;;;;13.82;9.48;;;16.50;99.90;;;;;;5077220;28;20107;-65
2023/06/05 04:42:34;;;;;;;17.17;9.30;;;16.60;99.90;;;;;;5075992;28;20028;-64
2023/06/05 04:45:05;;;;;;;16.52;9.48;;;16.70;99.90;;;;;;5075698;28;20033;-65
2023/06/05 04:47:35;;;;;;;13.27;8.80;;;16.80;99.90;;;;;;5075854;28;20042;-64
2023/06/05 04:50:06;;;;;;;13.23;8.75;;;16.80;99.90;;;;;;5076911;28;20033;-64
2023/06/05 04:52:41;;;;;;;18.15;10.05;;;17.00;99.90;;;;;;5059139;28;20028;-65
2023/06/05 04:55:07;;;;;;;26.60;10.20;;;17.10;99.90;;;;;;5075771;28;20025;-65
2023/06/05 04:57:34;;;;;;;16.77;8.88;;;17.20;99.90;;;;;;5075250;28;20044;-65
2023/06/05 05:00:04;;;;;;;10.48;8.55;;;17.20;99.90;;;;;;5075445;28;20039;-65
2023/06/05 05:02:31;;;;;;;14.80;8.68;;;17.20;99.90;;;;;;5074376;28;20535;-65
2023/06/05 05:04:57;;;;;;;13.45;7.63;;;17.20;99.90;;;;;;5076973;28;20024;-65
2023/06/05 05:07:26;;;;;;;14.85;8.27;;;17.40;99.90;;;;;;5075540;28;20036;-65
2023/06/05 05:09:52;;;;;;;21.13;9.43;;;17.50;99.90;;;;;;5075186;28;20063;-65
2023/06/05 05:12:18;;;;;;;13.48;7.72;;;17.70;99.90;;;;;;5075328;28;20028;-65
2023/06/05 05:14:45;;;;;;;14.15;9.15;;;17.90;99.90;;;;;;5076600;28;20024;-65
2023/06/05 05:17:11;;;;;;;13.32;10.18;;;18.00;99.90;;;;;;5075287;28;20013;-65
2023/06/05 05:19:40;;;;;;;18.15;10.73;;;18.10;99.90;;;;;;5075116;28;20028;-65
2023/06/05 05:22:07;;;;;;;12.38;10.73;;;18.20;99.90;;;;;;5075243;28;20398;-65
2023/06/05 05:24:33;;;;;;;15.85;10.35;;;18.30;99.90;;;;;;5073401;28;20489;-65
2023/06/05 05:27:00;;;;;;;18.10;11.40;;;18.40;99.90;;;;;;5075178;28;20084;-65
2023/06/05 05:29:26;;;;;;;17.02;12.30;;;18.40;99.90;;;;;;5073594;28;20024;-65
2023/06/05 05:31:52;;;;;;;16.65;12.52;;;18.40;99.90;;;;;;5076296;28;20047;-65
2023/06/05 05:34:19;;;;;;;16.63;12.50;;;18.50;99.90;;;;;;5074734;28;20040;-65
2023/06/05 05:36:45;;;;;;;19.90;14.77;;;18.60;99.90;;;;;;5074808;28;20029;-65
2023/06/05 05:39:11;;;;;;;17.27;13.63;;;18.50;99.90;;;;;;5073389;28;20434;-65
2023/06/05 05:41:37;;;;;;;18.77;14.30;;;18.60;99.90;;;;;;5085489;28;20032;-65
2023/06/05 05:44:03;;;;;;;19.40;14.43;;;18.70;99.90;;;;;;5056037;28;20094;-65
2023/06/05 05:46:29;;;;;;;18.75;13.73;;;18.70;99.90;;;;;;5055825;28;20394;-65
2023/06/05 05:48:55;;;;;;;28.60;15.23;;;18.80;99.90;;;;;;5055448;28;20490;-65
2023/06/05 05:51:21;;;;;;;19.95;14.27;;;18.90;99.90;;;;;;5055886;28;20060;-65
2023/06/05 05:53:47;;;;;;;19.55;13.52;;;18.70;99.90;;;;;;5055495;28;20025;-65
2023/06/05 05:56:13;;;;;;;21.65;15.43;;;18.90;99.90;;;;;;5055430;28;20411;-65
2023/06/05 05:58:39;;;;;;;20.85;14.90;;;19.00;99.90;;;;;;5070395;28;20475;-65
2023/06/05 06:01:06;;;;;;;19.15;13.50;;;19.00;99.90;;;;;;5075271;28;20475;-65
2023/06/05 06:03:36;;;;;;;23.65;14.70;;;19.10;99.90;;;;;;5074249;28;20481;-65
2023/06/05 06:06:06;;;;;;;31.42;14.88;;;19.20;99.90;;;;;;5075310;28;20500;-65
2023/06/05 06:08:35;;;;;;;20.67;12.60;;;19.20;99.90;;;;;;5072047;28;20037;-65
2023/06/05 06:11:03;;;;;;;21.42;12.65;;;19.40;99.90;;;;;;5066133;28;20039;-65
2023/06/05 06:13:29;;;;;;;21.70;11.10;;;19.60;99.90;;;;;;5056492;28;20025;-65
2023/06/05 06:15:55;;;;;;;15.77;9.95;;;19.80;99.90;;;;;;5058727;28;20028;-65
2023/06/05 06:18:21;;;;;;;15.65;9.52;;;19.90;99.90;;;;;;5073306;28;20082;-65
2023/06/05 06:20:47;;;;;;;17.25;8.77;;;19.90;99.90;;;;;;5075247;28;20024;-65
2023/06/05 06:23:13;;;;;;;16.45;9.25;;;20.10;99.90;;;;;;5075109;28;20036;-65
2023/06/05 06:25:39;;;;;;;18.65;10.57;;;20.40;99.90;;;;;;5073717;28;20031;-65
2023/06/05 06:28:05;;;;;;;17.15;10.00;;;20.60;99.90;;;;;;5074056;28;20028;-65
2023/06/05 06:30:42;;;;;;;14.60;9.30;;;20.50;99.90;;;;;;5074828;28;20025;-65
2023/06/05 06:33:08;;;;;;;14.05;9.52;;;20.60;99.90;;;;;;5074779;28;20020;-65
2023/06/05 06:35:34;;;;;;;17.50;9.88;;;20.50;99.90;;;;;;5072995;28;20060;-65
2023/06/05 06:38:01;;;;;;;18.23;10.05;;;20.90;99.90;;;;;;5068652;28;20045;-65
2023/06/05 06:40:28;;;;;;;16.27;11.57;;;21.20;99.90;;;;;;5063723;28;20031;-65
2023/06/05 06:42:55;;;;;;;22.33;11.80;;;21.50;99.90;;;;;;5064647;28;20082;-65
2023/06/05 06:45:40;;;;;;;19.15;11.82;;;21.70;99.90;;;;;;5072104;28;20389;-65
2023/06/05 06:48:06;;;;;;;23.02;11.02;;;21.90;99.90;;;;;;5071259;28;20048;-65
2023/06/05 06:50:32;;;;;;;13.77;10.73;;;22.10;99.90;;;;;;5067741;28;20082;-65
2023/06/05 06:52:58;;;;;;;18.52;11.65;;;22.40;99.90;;;;;;5074095;28;20020;-65
2023/06/05 06:55:27;;;;;;;14.07;9.55;;;22.20;99.90;;;;;;5072131;28;20036;-65
2023/06/05 06:57:56;;;;;;;17.05;10.20;;;22.20;99.90;;;;;;5070808;28;20486;-65
2023/06/05 07:00:23;;;;;;;15.00;10.10;;;22.10;99.90;;;;;;5070073;28;20078;-65
2023/06/05 07:02:50;;;;;;;12.38;8.77;;;22.40;99.90;;;;;;5085999;28;20044;-65
2023/06/05 07:05:19;;;;;;;11.85;8.35;;;22.70;99.90;;;;;;5073673;28;20032;-65
2023/06/05 07:07:51;;;;;;;15.73;7.97;;;22.90;99.90;;;;;;5072499;28;20024;-65
2023/06/05 07:10:19;;;;;;;17.48;10.13;;;22.90;99.90;;;;;;5072553;28;20020;-66
2023/06/05 07:12:45;;;;;;;12.27;7.72;;;23.10;99.90;;;;;;5074107;28;20028;-65
2023/06/05 07:15:11;;;;;;;14.43;8.60;;;23.10;99.90;;;;;;5074249;28;20448;-66
2023/06/05 07:17:37;;;;;;;18.70;9.60;;;23.30;99.90;;;;;;5071747;28;20084;-65
2023/06/05 07:20:05;;;;;;;15.52;7.65;;;23.40;99.90;;;;;;5068870;28;20604;-65
2023/06/05 07:22:31;;;;;;;14.77;8.13;;;23.40;99.90;;;;;;5067144;28;20025;-66
2023/06/05 07:24:57;;;;;;;13.10;8.18;;;23.50;99.90;;;;;;5073321;28;20070;-65
2023/06/05 07:27:23;;;;;;;12.68;7.57;;;23.20;99.90;;;;;;5074070;28;20033;-65
2023/06/05 07:29:49;;;;;;;11.18;7.43;;;23.30;99.90;;;;;;5074053;28;20036;-66
2023/06/05 07:32:15;;;;;;;11.00;7.18;;;23.50;99.90;;;;;;5074223;28;20025;-65
2023/06/05 07:34:42;;;;;;;13.02;7.22;;;23.60;99.90;;;;;;5073806;28;20053;-66
2023/06/05 07:37:08;;;;;;;7.80;6.00;;;23.90;99.90;;;;;;5064363;28;20025;-66
2023/06/05 07:39:35;;;;;;;12.20;6.97;;;24.10;99.90;;;;;;5054055;28;20037;-65
2023/06/05 07:42:01;;;;;;;14.73;8.15;;;24.30;99.90;;;;;;5063158;28;20024;-65
2023/06/05 07:44:26;;;;;;;12.30;7.30;;;24.20;99.90;;;;;;5073926;28;20031;-66
2023/06/05 07:46:53;;;;;;;14.85;7.22;;;24.00;99.90;;;;;;5074071;28;20025;-65
2023/06/05 07:49:19;;;;;;;9.43;6.55;;;23.90;99.90;;;;;;5073857;28;20111;-65
2023/06/05 07:51:47;;;;;;;16.80;7.45;;;23.90;99.90;;;;;;5074334;28;20352;-65
2023/06/05 07:54:15;;;;;;;13.95;8.18;;;23.90;99.90;;;;;;5074548;28;20033;-65
2023/06/05 07:56:41;;;;;;;18.30;8.45;;;24.10;99.90;;;;;;5073692;28;20052;-65
2023/06/05 07:59:08;;;;;;;17.95;9.43;;;24.10;99.90;;;;;;5072804;28;20032;-65
2023/06/05 08:01:36;;;;;;;17.58;8.57;;;24.40;99.90;;;;;;5068832;28;20166;-65
2023/06/05 08:04:10;;;;;;;11.18;8.50;;;24.50;99.90;;;;;;5073950;28;20466;-65
2023/06/05 08:06:40;;;;;;;16.65;8.15;;;24.60;99.90;;;;;;5073821;28;20074;-66
2023/06/05 08:09:09;;;;;;;21.67;8.40;;;24.50;99.90;;;;;;5072152;28;20498;-65
2023/06/05 08:11:41;;;;;;;13.18;7.85;;;24.70;99.90;;;;;;5073836;28;20109;-65
2023/06/05 08:14:07;;;;;;;10.40;7.20;;;24.70;99.90;;;;;;5072477;28;20071;-65
2023/06/05 08:16:37;;;;;;;12.65;7.15;;;24.70;99.90;;;;;;5072470;28;20032;-65
2023/06/05 08:19:06;;;;;;;11.93;8.50;;;24.70;99.90;;;;;;5073462;28;20060;-65
2023/06/05 08:21:37;;;;;;;14.40;8.82;;;24.70;99.90;;;;;;5073791;28;20025;-65
2023/06/05 08:24:03;;;;;;;14.98;8.25;;;24.70;99.90;;;;;;5073664;28;20074;-66
2023/06/05 08:26:29;;;;;;;11.32;7.80;;;24.50;99.90;;;;;;5070207;28;20052;-65
2023/06/05 08:28:55;;;;;;;12.57;8.48;;;24.50;99.90;;;;;;5062262;28;20036;-65
2023/06/05 08:31:21;;;;;;;11.65;8.95;;;24.40;99.90;;;;;;5072467;28;20457;-65
2023/06/05 08:33:47;;;;;;;15.55;9.10;;;24.50;99.90;;;;;;5066373;28;20489;-65
2023/06/05 08:36:13;;;;;;;11.63;8.20;;;24.50;99.90;;;;;;5062200;28;20032;-65
2023/06/05 08:38:39;;;;;;;21.98;8.57;;;24.50;99.90;;;;;;5076323;28;20596;-65
2023/06/05 08:41:10;;;;;;;16.10;9.23;;;24.60;99.90;;;;;;5076740;28;20024;-65
2023/06/05 08:43:41;;;;;;;17.48;8.90;;;24.30;99.90;;;;;;5074461;28;20067;-65
2023/06/05 08:46:09;;;;;;;13.38;8.35;;;24.40;99.90;;;;;;5076177;28;20024;-65
2023/06/05 08:48:46;;;;;;;12.43;7.53;;;24.60;99.90;;;;;;5076168;28;20401;-65
2023/06/05 08:51:17;;;;;;;14.70;8.68;;;24.50;99.90;;;;;;5058070;28;20025;-65
2023/06/05 08:53:51;;;;;;;13.35;8.57;;;24.40;99.90;;;;;;5068030;28;20039;-65
2023/06/05 08:56:17;;;;;;;17.33;8.30;;;24.20;99.90;;;;;;5076256;28;20033;-65
2023/06/05 08:58:45;;;;;;;13.45;7.93;;;24.40;99.90;;;;;;5073111;28;20079;-65
2023/06/05 09:01:11;;;;;;;15.45;8.80;;;24.50;99.90;;;;;;5074752;28;20032;-65
2023/06/05 09:03:36;;;;;;;16.95;9.43;;;24.50;99.90;;;;;;5076275;28;20109;-65
2023/06/05 09:06:04;;;;;;;15.02;8.52;;;24.50;99.90;;;;;;5074898;28;20021;-65
2023/06/05 09:08:34;;;;;;;18.52;8.60;;;24.40;99.90;;;;;;5073030;28;20056;-65
2023/06/05 09:11:20;;;;;;;22.83;8.82;;;24.50;99.90;;;;;;5074071;28;20035;-65
2023/06/05 09:13:46;;;;;;;15.45;8.73;;;24.50;99.90;;;;;;5076334;28;20416;-65
2023/06/05 09:16:13;;;;;;;18.60;8.95;;;24.60;99.90;;;;;;5075106;28;20017;-65
2023/06/05 09:18:56;;;;;;;26.60;10.27;;;24.70;99.90;;;;;;5073108;28;20052;-65
2023/06/05 09:21:28;;;;;;;16.63;9.20;;;24.80;99.90;;;;;;5056146;28;20035;-65
2023/06/05 09:24:13;;;;;;;15.95;8.38;;;24.90;99.90;;;;;;5056437;28;20087;-65
2023/06/05 09:27:03;;;;;;;13.00;8.10;;;25.00;99.90;;;;;;5056117;28;20040;-65
2023/06/05 09:29:30;;;;;;;15.65;9.52;;;25.00;99.90;;;;;;5075741;28;20028;-65
2023/06/05 09:31:58;;;;;;;16.70;9.95;;;25.00;99.90;;;;;;5073451;28;20021;-65
2023/06/05 09:34:45;;;;;;;19.77;9.98;;;24.70;99.90;;;;;;5076497;28;20702;-65
2023/06/05 09:37:13;;;;;;;14.82;9.25;;;24.80;99.90;;;;;;5075585;28;20036;-65
2023/06/05 09:39:46;;;;;;;30.45;9.98;;;24.70;99.90;;;;;;5074752;28;20024;-65
2023/06/05 09:42:18;;;;;;;16.92;9.05;;;24.80;99.90;;;;;;5080142;28;20029;-65
2023/06/05 09:44:58;;;;;;;11.70;7.60;;;24.80;99.90;;;;;;5070367;28;20576;-65
2023/06/05 09:47:25;;;;;;;10.57;6.43;;;24.80;99.90;;;;;;5072107;28;20386;-65
2023/06/05 09:49:51;;;;;;;15.05;7.57;;;24.90;99.90;;;;;;5074410;28;20474;-65
2023/06/05 09:52:17;;;;;;;13.05;7.38;;;24.90;99.90;;;;;;5075443;28;20021;-65
2023/06/05 09:54:45;;;;;;;10.60;6.40;;;25.00;99.90;;;;;;5074579;28;20089;-65
2023/06/05 09:57:15;;;;;;;15.30;7.72;;;25.00;99.90;;;;;;5074270;28;20051;-65
2023/06/05 09:59:55;;;;;;;13.93;8.20;;;25.10;99.90;;;;;;5074942;28;20029;-65
2023/06/05 10:02:25;;;;;;;13.32;7.45;;;24.80;99.90;;;;;;5073479;28;20490;-65
2023/06/05 10:04:57;;;;;;;28.63;10.65;;;24.70;99.90;;;;;;5074239;28;20466;-65
2023/06/05 10:07:24;;;;;;;20.05;9.63;;;24.80;99.90;;;;;;5075301;28;20028;-65
2023/06/05 10:09:50;;;;;;;60.65;24.77;;;24.80;99.90;;;;;;5068391;28;20042;-65
2023/06/05 10:12:17;;;;;;;92.45;33.13;;;24.90;99.90;;;;;;5074958;28;20028;-65
2023/06/05 10:14:43;;;;;;;75.35;31.55;;;24.80;99.90;;;;;;5075409;28;20425;-65
2023/06/05 10:17:13;;;;;;;63.20;28.20;;;24.80;99.90;;;;;;5072283;28;20059;-65
2023/06/05 10:19:43;;;;;;;69.68;27.15;;;25.00;99.90;;;;;;5066715;28;20037;-65
2023/06/05 10:22:13;;;;;;;76.72;31.05;;;25.10;99.90;;;;;;5070851;28;20086;-65
2023/06/05 10:24:44;;;;;;;82.03;34.83;;;25.20;99.90;;;;;;5073701;28;20021;-65
2023/06/05 10:27:30;;;;;;;71.22;28.95;;;25.10;99.90;;;;;;5072549;28;20367;-65
2023/06/05 10:30:26;;;;;;;64.80;26.27;;;25.20;99.90;;;;;;5074019;28;20020;-65
2023/06/05 10:33:20;;;;;;;78.07;30.05;;;25.50;99.90;;;;;;5072412;28;20377;-65
2023/06/05 10:36:04;;;;;;;76.97;31.45;;;25.60;99.90;;;;;;5054873;28;20048;-65
2023/06/05 10:38:32;;;;;;;82.75;33.45;;;25.70;99.90;;;;;;5068819;28;20039;-65
2023/06/05 10:41:01;;;;;;;69.55;30.58;;;25.70;99.90;;;;;;5054534;28;20021;-65
2023/06/05 10:43:36;;;;;;;56.67;28.43;;;25.60;99.90;;;;;;5072787;28;20029;-65
2023/06/05 10:46:22;;;;;;;60.45;26.90;;;25.50;99.90;;;;;;5064997;28;20566;-65
2023/06/05 10:49:10;;;;;;;46.15;23.70;;;25.60;99.90;;;;;;5070835;28;20097;-65
2023/06/05 10:51:43;;;;;;;49.38;22.83;;;25.50;99.90;;;;;;5073768;28;20025;-66
2023/06/05 10:54:16;;;;;;;48.55;22.48;;;25.40;99.90;;;;;;5067172;28;20429;-65
2023/06/05 10:57:03;;;;;;;38.58;19.30;;;25.10;99.90;;;;;;5067475;28;20482;-66
2023/06/05 10:59:31;;;;;;;35.72;18.65;;;25.10;99.90;;;;;;5073393;28;20086;-65
2023/06/05 11:04:51;;;;;;;33.55;17.40;;;25.10;99.90;;;;;;5070897;28;20039;-65
2023/06/05 11:07:25;;;;;;;32.78;16.10;;;25.20;99.90;;;;;;5072743;28;20056;-66
2023/06/05 11:10:05;;;;;;;30.52;15.77;;;25.20;99.90;;;;;;5071751;28;20363;-65
2023/06/05 11:12:35;;;;;;;24.58;14.63;;;25.00;99.90;;;;;;5050133;28;20128;-65
2023/06/05 11:15:05;;;;;;;25.80;13.65;;;25.00;99.90;;;;;;5056597;28;20394;-65
2023/06/05 11:17:43;;;;;;;23.60;13.52;;;25.00;99.90;;;;;;5042324;28;20143;-65
2023/06/05 11:20:29;;;;;;;22.35;12.63;;;25.00;99.90;;;;;;5067912;28;20076;-65
2023/06/05 11:22:55;;;;;;;22.05;12.88;;;25.00;99.90;;;;;;5060057;28;20029;-65
2023/06/05 11:25:21;;;;;;;21.67;11.60;;;25.00;99.90;;;;;;5070750;28;20088;-65
2023/06/05 11:27:52;;;;;;;23.90;13.18;;;25.00;99.90;;;;;;5073067;28;20032;-65
2023/06/05 11:30:18;;;;;;;;;;;25.00;99.90;;;;;;5062192;28;20021;-65
2023/06/05 11:32:45;;;;;;;26.13;14.30;;;25.00;99.90;;;;;;5071477;28;19920;-65
2023/06/05 11:35:11;;;;;;;21.40;11.48;;;25.10;99.90;;;;;;5072593;28;20023;-65
2023/06/05 11:37:39;;;;;;;20.90;11.52;;;25.30;99.90;;;;;;5066680;28;20021;-65
2023/06/05 11:40:10;;;;;;;29.02;12.32;;;25.30;99.90;;;;;;5059496;28;20039;-65
2023/06/05 11:42:36;;;;;;;;;;;25.60;99.90;;;;;;5050926;28;20033;-65
2023/06/05 11:45:02;;;;;;;14.98;9.85;;;25.70;99.90;;;;;;5071449;28;19912;-65
2023/06/05 11:47:29;;;;;;;15.57;9.35;;;25.60;99.90;;;;;;5073581;28;20036;-66
2023/06/05 11:50:12;;;;;;;18.77;10.02;;;25.70;99.90;;;;;;5069755;28;20037;-66
2023/06/05 11:52:44;;;;;;;20.10;9.57;;;25.90;99.90;;;;;;5062909;28;20023;-66
2023/06/05 11:55:32;;;;;;;17.98;9.50;;;25.60;99.90;;;;;;5054100;28;20389;-66
2023/06/05 11:58:00;;;;;;;16.02;9.43;;;25.30;99.90;;;;;;5069980;28;20106;-66
2023/06/05 12:00:29;;;;;;;21.05;10.05;;;25.30;99.90;;;;;;5071049;28;20036;-66
2023/06/05 12:02:56;;;;;;;21.20;9.55;;;25.60;99.90;;;;;;5074255;28;20039;-66
2023/06/05 12:05:22;;;;;;;17.42;8.93;;;25.30;99.90;;;;;;5069745;28;20053;-66
2023/06/05 12:07:48;;;;;;;20.33;10.88;;;25.60;99.90;;;;;;5073540;28;20083;-66
2023/06/05 12:10:14;;;;;;;15.48;8.98;;;25.60;99.90;;;;;;5070952;28;20128;-66
2023/06/05 12:12:53;;;;;;;13.40;8.93;;;26.00;99.90;;;;;;5066583;28;20104;-66
2023/06/05 12:15:20;;;;;;;20.27;9.38;;;26.20;99.90;;;;;;5072059;28;20031;-66
2023/06/05 12:17:53;;;;;;;19.05;9.77;;;26.50;99.90;;;;;;5077224;28;20390;-66
2023/06/05 12:20:20;;;;;;;11.88;9.07;;;26.40;99.90;;;;;;5060185;28;20371;-66
2023/06/05 12:22:48;;;;;;;14.55;9.35;;;26.70;99.90;;;;;;5067132;28;20064;-66
2023/06/05 12:25:21;;;;;;;12.15;9.10;;;27.10;99.90;;;;;;5061393;28;20035;-66
2023/06/05 12:27:52;;;;;;;16.55;10.55;;;27.30;99.90;;;;;;5075698;28;20059;-66
2023/06/05 12:30:19;;;;;;;17.45;10.35;;;27.30;99.90;;;;;;5034792;28;20025;-66
2023/06/05 12:32:45;;;;;;;19.20;10.52;;;27.20;99.90;;;;;;5073949;28;20043;-66
2023/06/05 12:35:24;;;;;;;28.48;12.88;;;26.70;99.90;;;;;;5073266;28;20058;-66
2023/06/05 12:37:51;;;;;;;15.80;9.67;;;26.40;99.90;;;;;;5070992;28;20032;-66
2023/06/05 12:40:21;;;;;;;14.70;10.52;;;26.00;99.90;;;;;;5066737;28;20568;-66
2023/06/05 12:42:51;;;;;;;19.15;10.15;;;25.60;99.90;;;;;;5053553;28;20047;-66
2023/06/05 12:45:17;;;;;;;20.38;10.90;;;25.60;99.90;;;;;;5062912;28;20053;-66